sensor_id;sensor_type;location;lat;lon;timestamp;pressure;altitude;pressure_sealevel;temperature;humidity
8501;BME280;4288;48.484;10.024;2023-12-29T00:01:23;95738.78;;;7.75;nan
8501;BME280;4288;48.484;10.024;2023-12-29T00:03:50;95737.47;;;7.66;nan
8501;BME280;4288;48.484;10.024;2023-12-29T00:06:18;95734.03;;;7.65;nan
8501;BME280;4288;48.484;10.024;2023-12-29T00:08:45;95730.97;;;7.63;nan
8501;BME280;4288;48.484;10.024;2023-12-29T00:11:17;95738.38;;;7.51;nan
8501;BME280;4288;48.484;10.024;2023-12-29T00:13:45;95734.34;;;7.60;nan
8501;BME280;4288;48.484;10.024;2023-12-29T00:16:12;95723.75;;;7.64;nan
8501;BME280;4288;48.484;10.024;2023-12-29T00:18:41;95721.38;;;7.59;nan
8501;BME280;4288;48.484;10.024;2023-12-29T00:21:08;95721.78;;;7.61;nan
8501;BME280;4288;48.484;10.024;2023-12-29T00:23:36;95728.03;;;7.68;nan
8501;BME280;4288;48.484;10.024;2023-12-29T00:26:04;95725.06;;;7.73;nan
8501;BME280;4288;48.484;10.024;2023-12-29T00:28:31;95721.97;;;7.71;nan
8501;BME280;4288;48.484;10.024;2023-12-29T00:30:58;95725.88;;;7.77;nan
8501;BME280;4288;48.484;10.024;2023-12-29T00:33:26;95717.44;;;7.72;nan
8501;BME280;4288;48.484;10.024;2023-12-29T00:35:55;95715.88;;;7.71;nan
8501;BME280;4288;48.484;10.024;2023-12-29T00:38:22;95715.78;;;7.64;nan
8501;BME280;4288;48.484;10.024;2023-12-29T00:40:49;95713.53;;;7.66;nan
8501;BME280;4288;48.484;10.024;2023-12-29T00:43:17;95695.63;;;7.63;nan
8501;BME280;4288;48.484;10.024;2023-12-29T00:45:44;95699.09;;;7.67;nan
8501;BME280;4288;48.484;10.024;2023-12-29T00:48:11;95697.31;;;7.74;nan
8501;BME280;4288;48.484;10.024;2023-12-29T00:50:39;95695.75;;;7.70;nan
8501;BME280;4288;48.484;10.024;2023-12-29T00:53:07;95695.91;;;7.80;nan
8501;BME280;4288;48.484;10.024;2023-12-29T00:55:35;95698.03;;;7.71;nan
8501;BME280;4288;48.484;10.024;2023-12-29T00:58:02;95697.72;;;7.76;nan
8501;BME280;4288;48.484;10.024;2023-12-29T01:00:30;95694.16;;;7.65;nan
8501;BME280;4288;48.484;10.024;2023-12-29T01:02:57;95691.19;;;7.70;nan
8501;BME280;4288;48.484;10.024;2023-12-29T01:05:24;95687.56;;;7.82;nan
8501;BME280;4288;48.484;10.024;2023-12-29T01:07:54;95681.88;;;7.83;nan
8501;BME280;4288;48.484;10.024;2023-12-29T01:10:22;95682.75;;;7.91;nan
8501;BME280;4288;48.484;10.024;2023-12-29T01:12:50;95682.44;;;7.96;nan
8501;BME280;4288;48.484;10.024;2023-12-29T01:15:17;95674.16;;;7.75;nan
8501;BME280;4288;48.484;10.024;2023-12-29T01:17:45;95670.84;;;7.81;nan
8501;BME280;4288;48.484;10.024;2023-12-29T01:20:13;95674.50;;;7.73;nan
8501;BME280;4288;48.484;10.024;2023-12-29T01:22:40;95678.69;;;7.74;nan
8501;BME280;4288;48.484;10.024;2023-12-29T01:25:08;95665.66;;;7.66;nan
8501;BME280;4288;48.484;10.024;2023-12-29T01:27:37;95665.00;;;7.72;nan
8501;BME280;4288;48.484;10.024;2023-12-29T01:30:05;95678.31;;;7.72;nan
8501;BME280;4288;48.484;10.024;2023-12-29T01:32:33;95671.44;;;7.71;nan
8501;BME280;4288;48.484;10.024;2023-12-29T01:35:00;95683.97;;;7.71;nan
8501;BME280;4288;48.484;10.024;2023-12-29T01:37:28;95679.19;;;7.80;nan
8501;BME280;4288;48.484;10.024;2023-12-29T01:39:55;95692.91;;;7.82;nan
8501;BME280;4288;48.484;10.024;2023-12-29T01:42:22;95698.78;;;7.68;nan
8501;BME280;4288;48.484;10.024;2023-12-29T01:44:51;95691.66;;;7.76;nan
8501;BME280;4288;48.484;10.024;2023-12-29T01:47:21;95694.84;;;7.85;nan
8501;BME280;4288;48.484;10.024;2023-12-29T01:49:50;95695.28;;;7.90;nan
8501;BME280;4288;48.484;10.024;2023-12-29T01:52:18;95699.03;;;7.86;nan
8501;BME280;4288;48.484;10.024;2023-12-29T01:54:49;95696.78;;;7.88;nan
8501;BME280;4288;48.484;10.024;2023-12-29T01:57:19;95710.78;;;7.85;nan
8501;BME280;4288;48.484;10.024;2023-12-29T01:59:47;95701.69;;;7.86;nan
8501;BME280;4288;48.484;10.024;2023-12-29T02:02:17;95694.47;;;7.86;nan
8501;BME280;4288;48.484;10.024;2023-12-29T02:04:45;95692.91;;;7.82;nan
8501;BME280;4288;48.484;10.024;2023-12-29T02:07:12;95683.22;;;7.70;nan
8501;BME280;4288;48.484;10.024;2023-12-29T02:09:40;95682.91;;;7.75;nan
8501;BME280;4288;48.484;10.024;2023-12-29T02:12:08;95671.06;;;7.73;nan
8501;BME280;4288;48.484;10.024;2023-12-29T02:14:35;95673.88;;;7.80;nan
8501;BME280;4288;48.484;10.024;2023-12-29T02:17:10;95673.88;;;7.80;nan
8501;BME280;4288;48.484;10.024;2023-12-29T02:19:46;95659.75;;;7.76;nan
8501;BME280;4288;48.484;10.024;2023-12-29T02:22:15;95666.56;;;7.77;nan
8501;BME280;4288;48.484;10.024;2023-12-29T02:24:46;95659.00;;;7.79;nan
8501;BME280;4288;48.484;10.024;2023-12-29T02:27:22;95658.31;;;7.82;nan
8501;BME280;4288;48.484;10.024;2023-12-29T02:30:10;95653.84;;;7.89;nan
8501;BME280;4288;48.484;10.024;2023-12-29T02:32:43;95644.38;;;7.92;nan
8501;BME280;4288;48.484;10.024;2023-12-29T02:35:15;95643.97;;;7.90;nan
8501;BME280;4288;48.484;10.024;2023-12-29T02:37:44;95648.22;;;7.94;nan
8501;BME280;4288;48.484;10.024;2023-12-29T02:40:15;95638.75;;;7.97;nan
8501;BME280;4288;48.484;10.024;2023-12-29T02:42:45;95641.28;;;7.90;nan
8501;BME280;4288;48.484;10.024;2023-12-29T02:45:13;95645.09;;;7.89;nan
8501;BME280;4288;48.484;10.024;2023-12-29T02:47:42;95637.44;;;7.84;nan
8501;BME280;4288;48.484;10.024;2023-12-29T02:50:10;95634.28;;;7.78;nan
8501;BME280;4288;48.484;10.024;2023-12-29T02:52:37;95644.13;;;7.74;nan
8501;BME280;4288;48.484;10.024;2023-12-29T02:55:05;95642.81;;;7.65;nan
8501;BME280;4288;48.484;10.024;2023-12-29T02:57:34;95635.59;;;7.62;nan
8501;BME280;4288;48.484;10.024;2023-12-29T03:00:01;95636.19;;;7.52;nan
8501;BME280;4288;48.484;10.024;2023-12-29T03:02:30;95633.06;;;7.46;nan
8501;BME280;4288;48.484;10.024;2023-12-29T03:04:57;95630.81;;;7.48;nan
8501;BME280;4288;48.484;10.024;2023-12-29T03:07:25;95623.53;;;7.45;nan
8501;BME280;4288;48.484;10.024;2023-12-29T03:09:52;95616.31;;;7.46;nan
8501;BME280;4288;48.484;10.024;2023-12-29T03:12:19;95609.53;;;7.48;nan
8501;BME280;4288;48.484;10.024;2023-12-29T03:14:48;95615.97;;;7.47;nan
8501;BME280;4288;48.484;10.024;2023-12-29T03:17:15;95611.41;;;7.48;nan
8501;BME280;4288;48.484;10.024;2023-12-29T03:19:43;95612.16;;;7.45;nan
8501;BME280;4288;48.484;10.024;2023-12-29T03:22:10;95618.56;;;7.44;nan
8501;BME280;4288;48.484;10.024;2023-12-29T03:24:40;95626.81;;;7.35;nan
8501;BME280;4288;48.484;10.024;2023-12-29T03:27:08;95629.28;;;7.25;nan
8501;BME280;4288;48.484;10.024;2023-12-29T03:29:35;95622.97;;;7.33;nan
8501;BME280;4288;48.484;10.024;2023-12-29T03:32:05;95620.34;;;7.36;nan
8501;BME280;4288;48.484;10.024;2023-12-29T03:34:33;95616.59;;;7.14;nan
8501;BME280;4288;48.484;10.024;2023-12-29T03:37:00;95608.03;;;7.25;nan
8501;BME280;4288;48.484;10.024;2023-12-29T03:39:28;95601.38;;;7.38;nan
8501;BME280;4288;48.484;10.024;2023-12-29T03:41:55;95596.59;;;7.47;nan
8501;BME280;4288;48.484;10.024;2023-12-29T03:44:23;95596.91;;;7.42;nan
8501;BME280;4288;48.484;10.024;2023-12-29T03:46:50;95584.06;;;7.21;nan
8501;BME280;4288;48.484;10.024;2023-12-29T03:49:20;95580.44;;;7.33;nan
8501;BME280;4288;48.484;10.024;2023-12-29T03:51:47;95581.53;;;7.32;nan
8501;BME280;4288;48.484;10.024;2023-12-29T03:54:14;95585.34;;;7.31;nan
8501;BME280;4288;48.484;10.024;2023-12-29T03:56:43;95590.75;;;7.11;nan
8501;BME280;4288;48.484;10.024;2023-12-29T03:59:10;95593.97;;;7.01;nan
8501;BME280;4288;48.484;10.024;2023-12-29T04:01:38;95578.94;;;6.86;nan
8501;BME280;4288;48.484;10.024;2023-12-29T04:04:05;95569.09;;;6.68;nan
8501;BME280;4288;48.484;10.024;2023-12-29T04:06:34;95575.81;;;6.62;nan
8501;BME280;4288;48.484;10.024;2023-12-29T04:09:01;95567.50;;;6.63;nan
8501;BME280;4288;48.484;10.024;2023-12-29T04:11:29;95577.16;;;6.52;nan
8501;BME280;4288;48.484;10.024;2023-12-29T04:13:56;95580.19;;;6.51;nan
8501;BME280;4288;48.484;10.024;2023-12-29T04:16:24;95574.25;;;6.57;nan
8501;BME280;4288;48.484;10.024;2023-12-29T04:18:51;95572.63;;;6.53;nan
8501;BME280;4288;48.484;10.024;2023-12-29T04:21:18;95569.63;;;6.54;nan
8501;BME280;4288;48.484;10.024;2023-12-29T04:23:47;95572.94;;;6.70;nan
8501;BME280;4288;48.484;10.024;2023-12-29T04:26:14;95589.16;;;6.65;nan
8501;BME280;4288;48.484;10.024;2023-12-29T04:28:42;95584.69;;;6.69;nan
8501;BME280;4288;48.484;10.024;2023-12-29T04:31:10;95590.41;;;6.71;nan
8501;BME280;4288;48.484;10.024;2023-12-29T04:33:37;95587.56;;;6.61;nan
8501;BME280;4288;48.484;10.024;2023-12-29T04:36:05;95589.66;;;6.71;nan
8501;BME280;4288;48.484;10.024;2023-12-29T04:38:33;95591.53;;;6.70;nan
8501;BME280;4288;48.484;10.024;2023-12-29T04:41:02;95587.41;;;6.73;nan
8501;BME280;4288;48.484;10.024;2023-12-29T04:43:29;95590.50;;;6.75;nan
8501;BME280;4288;48.484;10.024;2023-12-29T04:45:56;95602.53;;;6.50;nan
8501;BME280;4288;48.484;10.024;2023-12-29T04:48:24;95598.41;;;6.52;nan
8501;BME280;4288;48.484;10.024;2023-12-29T04:50:51;95594.72;;;6.57;nan
8501;BME280;4288;48.484;10.024;2023-12-29T04:53:18;95594.78;;;6.60;nan
8501;BME280;4288;48.484;10.024;2023-12-29T04:55:46;95587.22;;;6.62;nan
8501;BME280;4288;48.484;10.024;2023-12-29T04:58:15;95597.22;;;6.69;nan
8501;BME280;4288;48.484;10.024;2023-12-29T05:00:42;95607.94;;;6.76;nan
8501;BME280;4288;48.484;10.024;2023-12-29T05:03:09;95608.16;;;6.86;nan
8501;BME280;4288;48.484;10.024;2023-12-29T05:05:37;95610.09;;;6.89;nan
8501;BME280;4288;48.484;10.024;2023-12-29T05:08:04;95617.13;;;6.78;nan
8501;BME280;4288;48.484;10.024;2023-12-29T05:10:32;95601.59;;;6.80;nan
8501;BME280;4288;48.484;10.024;2023-12-29T05:13:00;95602.16;;;6.70;nan
8501;BME280;4288;48.484;10.024;2023-12-29T05:15:29;95601.03;;;6.71;nan
8501;BME280;4288;48.484;10.024;2023-12-29T05:17:56;95601.88;;;6.75;nan
8501;BME280;4288;48.484;10.024;2023-12-29T05:20:24;95598.47;;;6.75;nan
8501;BME280;4288;48.484;10.024;2023-12-29T05:22:51;95599.50;;;6.70;nan
8501;BME280;4288;48.484;10.024;2023-12-29T05:25:18;95600.69;;;6.73;nan
8501;BME280;4288;48.484;10.024;2023-12-29T05:27:48;95604.50;;;6.75;nan
8501;BME280;4288;48.484;10.024;2023-12-29T05:30:15;95588.22;;;6.77;nan
8501;BME280;4288;48.484;10.024;2023-12-29T05:32:44;95586.34;;;6.77;nan
8501;BME280;4288;48.484;10.024;2023-12-29T05:35:11;95590.41;;;6.71;nan
8501;BME280;4288;48.484;10.024;2023-12-29T05:37:39;95601.88;;;6.75;nan
8501;BME280;4288;48.484;10.024;2023-12-29T05:40:07;95595.84;;;6.78;nan
8501;BME280;4288;48.484;10.024;2023-12-29T05:42:35;95601.03;;;6.71;nan
8501;BME280;4288;48.484;10.024;2023-12-29T05:45:03;95607.16;;;6.75;nan
8501;BME280;4288;48.484;10.024;2023-12-29T05:47:30;95607.22;;;6.79;nan
8501;BME280;4288;48.484;10.024;2023-12-29T05:49:59;95620.88;;;6.77;nan
8501;BME280;4288;48.484;10.024;2023-12-29T05:52:26;95615.97;;;6.79;nan
8501;BME280;4288;48.484;10.024;2023-12-29T05:54:54;95613.19;;;6.72;nan
8501;BME280;4288;48.484;10.024;2023-12-29T05:57:22;95617.28;;;6.47;nan
8501;BME280;4288;48.484;10.024;2023-12-29T05:59:49;95623.84;;;6.53;nan
8501;BME280;4288;48.484;10.024;2023-12-29T06:02:17;95608.59;;;6.69;nan
8501;BME280;4288;48.484;10.024;2023-12-29T06:04:44;95613.19;;;6.72;nan
8501;BME280;4288;48.484;10.024;2023-12-29T06:07:13;95621.44;;;6.67;nan
8501;BME280;4288;48.484;10.024;2023-12-29T06:09:40;95623.09;;;6.75;nan
8501;BME280;4288;48.484;10.024;2023-12-29T06:12:08;95623.88;;;6.76;nan
8501;BME280;4288;48.484;10.024;2023-12-29T06:14:37;95610.13;;;6.70;nan
8501;BME280;4288;48.484;10.024;2023-12-29T06:17:04;95611.31;;;6.73;nan
8501;BME280;4288;48.484;10.024;2023-12-29T06:19:32;95608.59;;;6.69;nan
8501;BME280;4288;48.484;10.024;2023-12-29T06:21:59;95604.81;;;6.70;nan
8501;BME280;4288;48.484;10.024;2023-12-29T06:24:28;95610.97;;;6.74;nan
8501;BME280;4288;48.484;10.024;2023-12-29T06:26:55;95620.03;;;6.73;nan
8501;BME280;4288;48.484;10.024;2023-12-29T06:29:23;95626.06;;;6.70;nan
8501;BME280;4288;48.484;10.024;2023-12-29T06:31:50;95624.50;;;6.69;nan
8501;BME280;4288;48.484;10.024;2023-12-29T06:34:18;95628.41;;;6.75;nan
8501;BME280;4288;48.484;10.024;2023-12-29T06:36:45;95617.53;;;6.80;nan
8501;BME280;4288;48.484;10.024;2023-12-29T06:39:13;95617.94;;;6.82;nan
8501;BME280;4288;48.484;10.024;2023-12-29T06:41:41;95618.09;;;6.70;nan
8501;BME280;4288;48.484;10.024;2023-12-29T06:44:09;95617.78;;;6.75;nan
8501;BME280;4288;48.484;10.024;2023-12-29T06:46:37;95629.56;;;6.74;nan
8501;BME280;4288;48.484;10.024;2023-12-29T06:49:05;95624.00;;;6.83;nan
8501;BME280;4288;48.484;10.024;2023-12-29T06:51:33;95616.03;;;6.83;nan
8501;BME280;4288;48.484;10.024;2023-12-29T06:54:00;95615.09;;;6.94;nan
8501;BME280;4288;48.484;10.024;2023-12-29T06:56:28;95616.47;;;7.07;nan
8501;BME280;4288;48.484;10.024;2023-12-29T06:58:57;95607.91;;;7.17;nan
8501;BME280;4288;48.484;10.024;2023-12-29T07:01:24;95612.50;;;7.20;nan
8501;BME280;4288;48.484;10.024;2023-12-29T07:03:52;95610.09;;;7.35;nan
8501;BME280;4288;48.484;10.024;2023-12-29T07:06:19;95615.47;;;7.38;nan
8501;BME280;4288;48.484;10.024;2023-12-29T07:08:46;95623.59;;;7.49;nan
8501;BME280;4288;48.484;10.024;2023-12-29T07:11:14;95623.91;;;7.44;nan
8501;BME280;4288;48.484;10.024;2023-12-29T07:13:41;95632.00;;;7.51;nan
8501;BME280;4288;48.484;10.024;2023-12-29T07:16:10;95628.25;;;7.55;nan
8501;BME280;4288;48.484;10.024;2023-12-29T07:18:37;95620.69;;;7.57;nan
8501;BME280;4288;48.484;10.024;2023-12-29T07:21:05;95616.47;;;7.53;nan
8501;BME280;4288;48.484;10.024;2023-12-29T07:23:32;95616.09;;;7.54;nan
8501;BME280;4288;48.484;10.024;2023-12-29T07:26:00;95620.63;;;7.54;nan
8501;BME280;4288;48.484;10.024;2023-12-29T07:28:27;95625.34;;;7.64;nan
8501;BME280;4288;48.484;10.024;2023-12-29T07:30:55;95622.28;;;7.62;nan
8501;BME280;4288;48.484;10.024;2023-12-29T07:33:24;95624.94;;;7.62;nan
8501;BME280;4288;48.484;10.024;2023-12-29T07:35:51;95619.31;;;7.67;nan
8501;BME280;4288;48.484;10.024;2023-12-29T07:38:19;95615.56;;;7.71;nan
8501;BME280;4288;48.484;10.024;2023-12-29T07:40:46;95629.28;;;7.73;nan
8501;BME280;4288;48.484;10.024;2023-12-29T07:43:14;95629.59;;;7.68;nan
8501;BME280;4288;48.484;10.024;2023-12-29T07:45:42;95632.97;;;7.65;nan
8501;BME280;4288;48.484;10.024;2023-12-29T07:48:10;95637.63;;;7.72;nan
8501;BME280;4288;48.484;10.024;2023-12-29T07:50:39;95633.47;;;7.74;nan
8501;BME280;4288;48.484;10.024;2023-12-29T07:53:07;95630.94;;;7.81;nan
8501;BME280;4288;48.484;10.024;2023-12-29T07:55:38;95644.13;;;7.74;nan
8501;BME280;4288;48.484;10.024;2023-12-29T07:58:06;95638.69;;;7.67;nan
8501;BME280;4288;48.484;10.024;2023-12-29T08:00:36;95644.94;;;7.78;nan
8501;BME280;4288;48.484;10.024;2023-12-29T08:03:04;95653.28;;;7.77;nan
8501;BME280;4288;48.484;10.024;2023-12-29T08:05:33;95649.56;;;7.81;nan
8501;BME280;4288;48.484;10.024;2023-12-29T08:08:02;95651.44;;;7.81;nan
8501;BME280;4288;48.484;10.024;2023-12-29T08:10:30;95652.91;;;7.78;nan
8501;BME280;4288;48.484;10.024;2023-12-29T08:12:58;95649.97;;;7.83;nan
8501;BME280;4288;48.484;10.024;2023-12-29T08:15:26;95655.00;;;7.92;nan
8501;BME280;4288;48.484;10.024;2023-12-29T08:17:53;95647.72;;;7.85;nan
8501;BME280;4288;48.484;10.024;2023-12-29T08:20:20;95654.50;;;8.09;nan
8501;BME280;4288;48.484;10.024;2023-12-29T08:22:48;95649.47;;;8.04;nan
8501;BME280;4288;48.484;10.024;2023-12-29T08:25:17;95658.97;;;8.01;nan
8501;BME280;4288;48.484;10.024;2023-12-29T08:27:44;95655.94;;;8.03;nan
8501;BME280;4288;48.484;10.024;2023-12-29T08:30:12;95659.97;;;8.20;nan
8501;BME280;4288;48.484;10.024;2023-12-29T08:32:40;95664.13;;;8.17;nan
8501;BME280;4288;48.484;10.024;2023-12-29T08:35:07;95667.31;;;8.26;nan
8501;BME280;4288;48.484;10.024;2023-12-29T08:37:35;95657.56;;;8.37;nan
8501;BME280;4288;48.484;10.024;2023-12-29T08:40:03;95663.69;;;8.41;nan
8501;BME280;4288;48.484;10.024;2023-12-29T08:42:32;95670.22;;;8.44;nan
8501;BME280;4288;48.484;10.024;2023-12-29T08:44:59;95672.06;;;8.40;nan
8501;BME280;4288;48.484;10.024;2023-12-29T08:47:26;95682.63;;;8.33;nan
8501;BME280;4288;48.484;10.024;2023-12-29T08:49:54;95674.72;;;8.40;nan
8501;BME280;4288;48.484;10.024;2023-12-29T08:52:21;95672.09;;;8.43;nan
8501;BME280;4288;48.484;10.024;2023-12-29T08:54:48;95679.13;;;8.58;nan
8501;BME280;4288;48.484;10.024;2023-12-29T08:57:16;95667.59;;;8.47;nan
8501;BME280;4288;48.484;10.024;2023-12-29T08:59:45;95668.56;;;8.65;nan
8501;BME280;4288;48.484;10.024;2023-12-29T09:02:12;95662.59;;;8.75;nan
8501;BME280;4288;48.484;10.024;2023-12-29T09:04:39;95654.22;;;9.10;nan
8501;BME280;4288;48.484;10.024;2023-12-29T09:07:07;95654.66;;;9.59;nan
8501;BME280;4288;48.484;10.024;2023-12-29T09:09:34;95662.75;;;9.73;nan
8501;BME280;4288;48.484;10.024;2023-12-29T09:12:02;95652.44;;;9.72;nan
8501;BME280;4288;48.484;10.024;2023-12-29T09:14:29;95660.84;;;10.25;nan
8501;BME280;4288;48.484;10.024;2023-12-29T09:17:00;95649.91;;;10.54;nan
8501;BME280;4288;48.484;10.024;2023-12-29T09:19:27;95652.72;;;10.90;nan
8501;BME280;4288;48.484;10.024;2023-12-29T09:21:55;95652.63;;;10.65;nan
8501;BME280;4288;48.484;10.024;2023-12-29T09:24:22;95660.44;;;11.26;nan
8501;BME280;4288;48.484;10.024;2023-12-29T09:26:50;95652.41;;;11.30;nan
8501;BME280;4288;48.484;10.024;2023-12-29T09:29:18;95663.88;;;11.34;nan
8501;BME280;4288;48.484;10.024;2023-12-29T09:31:45;95657.41;;;11.35;nan
8501;BME280;4288;48.484;10.024;2023-12-29T09:34:14;95663.16;;;11.61;nan
8501;BME280;4288;48.484;10.024;2023-12-29T09:36:42;95669.25;;;11.41;nan
8501;BME280;4288;48.484;10.024;2023-12-29T09:39:09;95671.97;;;11.83;nan
8501;BME280;4288;48.484;10.024;2023-12-29T09:41:39;95668.53;;;11.90;nan
8501;BME280;4288;48.484;10.024;2023-12-29T09:44:14;95670.75;;;12.37;nan
8501;BME280;4288;48.484;10.024;2023-12-29T09:46:42;95667.75;;;13.21;nan
8501;BME280;4288;48.484;10.024;2023-12-29T09:49:09;95664.00;;;14.11;nan
8501;BME280;4288;48.484;10.024;2023-12-29T09:51:39;95669.28;;;14.96;nan
8501;BME280;4288;48.484;10.024;2023-12-29T09:54:09;95667.25;;;15.03;nan
8501;BME280;4288;48.484;10.024;2023-12-29T09:56:37;95664.94;;;15.85;nan
8501;BME280;4288;48.484;10.024;2023-12-29T09:59:04;95669.75;;;16.21;nan
